Time;durP1;ratioP1;P1;durP2;ratioP2;P2;SDS_P1;SDS_P2;PMS_P1;PMS_P2;Temp;Humidity;BMP_temperature;BMP_pressure;BME280_temperature;BME280_humidity;BME280_pressure;Samples;Min_cycle;Max_cycle;Signal;HPM_P1;HPM_P2
2022/07/02 00:00:24;;;;;;;15.57;14.57;;;9.90;99.90;;;;;;5070325;28;20644;-79
2022/07/02 00:02:52;;;;;;;15.45;14.45;;;10.00;99.90;;;;;;5067514;28;20056;-75
2022/07/02 00:05:23;;;;;;;15.02;14.07;;;10.00;99.90;;;;;;5066626;28;20036;-76
2022/07/02 00:07:51;;;;;;;16.25;15.05;;;10.00;99.90;;;;;;5061998;28;20072;-74
2022/07/02 00:10:18;;;;;;;15.80;14.40;;;9.90;99.90;;;;;;5060952;28;20044;-77
2022/07/02 00:12:45;;;;;;;16.13;14.80;;;9.80;99.90;;;;;;5067907;28;20097;-75
2022/07/02 00:15:12;;;;;;;16.73;15.73;;;9.80;99.90;;;;;;5068084;28;20449;-76
2022/07/02 00:17:39;;;;;;;16.38;15.38;;;9.80;99.90;;;;;;5056586;28;20048;-77
2022/07/02 00:20:07;;;;;;;16.08;15.07;;;9.70;99.90;;;;;;5070869;28;20052;-76
2022/07/02 00:22:34;;;;;;;15.63;14.60;;;9.60;99.90;;;;;;5054786;28;20070;-75
2022/07/02 00:25:01;;;;;;;16.15;15.18;;;9.60;99.90;;;;;;5050275;28;20048;-75
2022/07/02 00:27:31;;;;;;;16.70;15.70;;;9.50;99.90;;;;;;5052068;28;20047;-74
2022/07/02 00:30:00;;;;;;;17.15;16.25;;;9.40;99.90;;;;;;5067483;28;20116;-76
2022/07/02 00:32:32;;;;;;;18.20;16.80;;;9.50;99.90;;;;;;5070090;28;20048;-77
2022/07/02 00:35:11;;;;;;;16.80;15.68;;;9.50;99.90;;;;;;5072752;28;20385;-77
2022/07/02 00:37:38;;;;;;;16.98;15.98;;;9.50;99.90;;;;;;5068840;28;20040;-76
2022/07/02 00:40:07;;;;;;;16.48;15.57;;;9.50;99.90;;;;;;5068816;28;20075;-76
2022/07/02 00:42:37;;;;;;;17.52;16.20;;;9.60;99.90;;;;;;5067190;28;20068;-75
2022/07/02 00:45:05;;;;;;;17.80;16.70;;;9.70;99.90;;;;;;5049523;28;20045;-75
2022/07/02 00:47:34;;;;;;;15.88;14.88;;;9.70;99.90;;;;;;5062359;28;20044;-75
2022/07/02 00:50:05;;;;;;;16.33;15.15;;;9.70;99.90;;;;;;5052947;28;20110;-75
2022/07/02 00:52:34;;;;;;;15.65;14.52;;;9.70;99.90;;;;;;5067316;28;20036;-74
2022/07/02 00:55:01;;;;;;;14.32;13.40;;;9.70;99.90;;;;;;5053094;28;20122;-75
2022/07/02 00:57:32;;;;;;;13.68;12.73;;;9.60;99.90;;;;;;5069569;28;20105;-75
2022/07/02 00:59:59;;;;;;;14.35;13.30;;;9.60;99.90;;;;;;5062904;28;20072;-76
2022/07/02 01:02:27;;;;;;;14.57;13.30;;;9.40;99.90;;;;;;5069733;28;20040;-76
2022/07/02 01:04:56;;;;;;;15.50;14.25;;;9.40;99.90;;;;;;5068946;28;20040;-77
2022/07/02 01:07:31;;;;;;;15.10;13.90;;;9.30;99.90;;;;;;5071672;28;20043;-74
2022/07/02 01:10:17;;;;;;;15.57;14.00;;;9.20;99.90;;;;;;5059394;28;20572;-75
2022/07/02 01:12:45;;;;;;;14.32;13.32;;;9.10;99.90;;;;;;5070047;28;21241;-75
2022/07/02 01:15:13;;;;;;;14.80;13.90;;;9.00;99.90;;;;;;5062184;28;20067;-74
2022/07/02 01:17:41;;;;;;;15.73;14.52;;;9.00;99.90;;;;;;5074808;28;20040;-75
2022/07/02 01:20:09;;;;;;;14.85;13.95;;;9.00;99.90;;;;;;5051344;28;20044;-76
2022/07/02 01:22:36;;;;;;;14.95;13.95;;;8.90;99.90;;;;;;5067070;28;20562;-76
2022/07/02 01:25:04;;;;;;;15.45;14.15;;;8.90;99.90;;;;;;5058146;28;20048;-76
2022/07/02 01:27:31;;;;;;;14.70;13.80;;;8.90;99.90;;;;;;5063651;28;20489;-76
2022/07/02 01:29:58;;;;;;;16.17;14.75;;;8.90;99.90;;;;;;5069852;28;20143;-75
2022/07/02 01:32:25;;;;;;;16.80;15.30;;;8.80;99.90;;;;;;5068451;28;20051;-77
2022/07/02 01:34:53;;;;;;;15.27;14.05;;;8.80;99.90;;;;;;5054307;28;20052;-74
2022/07/02 01:37:22;;;;;;;15.43;14.38;;;8.90;99.90;;;;;;5067247;28;20052;-76
2022/07/02 01:39:49;;;;;;;16.58;15.05;;;8.90;99.90;;;;;;5054238;28;20052;-75
2022/07/02 01:42:18;;;;;;;17.48;16.15;;;8.90;99.90;;;;;;5066060;28;20052;-78
2022/07/02 01:44:45;;;;;;;15.95;14.88;;;8.90;99.90;;;;;;5049701;28;20056;-76
2022/07/02 01:47:13;;;;;;;15.25;14.18;;;8.90;99.90;;;;;;5054935;28;20105;-76
2022/07/02 01:49:40;;;;;;;14.20;13.18;;;8.90;99.90;;;;;;5064986;28;20052;-75
2022/07/02 01:52:08;;;;;;;14.75;13.40;;;8.90;99.90;;;;;;5064166;28;20040;-74
2022/07/02 01:54:36;;;;;;;14.80;13.35;;;8.90;99.90;;;;;;5068569;28;20056;-74
2022/07/02 01:57:04;;;;;;;13.85;12.48;;;8.90;99.90;;;;;;5048927;28;20052;-75
2022/07/02 01:59:32;;;;;;;13.32;12.23;;;8.80;99.90;;;;;;5070825;28;20099;-75
2022/07/02 02:01:59;;;;;;;14.70;13.23;;;8.70;99.90;;;;;;5061831;28;20044;-75
2022/07/02 02:04:26;;;;;;;13.57;12.52;;;8.60;99.90;;;;;;5064180;28;20091;-76
2022/07/02 02:06:53;;;;;;;14.05;13.05;;;8.60;99.90;;;;;;5057759;28;20624;-75
2022/07/02 02:09:20;;;;;;;14.70;13.65;;;8.80;99.90;;;;;;5049030;28;20159;-75
2022/07/02 02:11:47;;;;;;;15.30;14.10;;;8.80;99.90;;;;;;5066253;28;20146;-74
2022/07/02 02:14:14;;;;;;;15.20;13.77;;;8.90;99.90;;;;;;5050023;28;20398;-75
2022/07/02 02:16:41;;;;;;;13.00;11.88;;;8.80;99.90;;;;;;5069641;28;20036;-75
2022/07/02 02:19:08;;;;;;;11.95;10.68;;;8.80;99.90;;;;;;5069696;28;20048;-75
2022/07/02 02:21:35;;;;;;;14.27;12.02;;;8.80;99.90;;;;;;5054759;28;20097;-74
2022/07/02 02:24:02;;;;;;;12.18;11.23;;;8.80;99.90;;;;;;5073405;28;20036;-74
2022/07/02 02:26:28;;;;;;;12.05;10.95;;;8.90;99.90;;;;;;5067950;28;20044;-76
2022/07/02 02:28:56;;;;;;;12.52;11.63;;;8.70;99.90;;;;;;5059127;28;20528;-75
2022/07/02 02:31:23;;;;;;;11.95;11.02;;;8.70;99.90;;;;;;5066361;28;20673;-75
2022/07/02 02:33:50;;;;;;;12.98;11.88;;;8.60;99.90;;;;;;5063296;28;20048;-74
2022/07/02 02:36:18;;;;;;;12.98;11.85;;;8.50;99.90;;;;;;5065896;28;20072;-75
2022/07/02 02:38:46;;;;;;;14.60;13.00;;;8.40;99.90;;;;;;5074272;28;20048;-76
2022/07/02 02:41:13;;;;;;;13.00;12.20;;;8.30;99.90;;;;;;5069285;28;20141;-75
2022/07/02 02:43:40;;;;;;;14.55;13.40;;;8.30;99.90;;;;;;5069129;28;20040;-75
2022/07/02 02:46:07;;;;;;;15.30;14.20;;;8.50;99.90;;;;;;5071865;28;20044;-76
2022/07/02 02:48:36;;;;;;;14.85;13.70;;;8.60;99.90;;;;;;5058969;28;20105;-74
2022/07/02 02:51:04;;;;;;;13.68;12.88;;;8.50;99.90;;;;;;5068437;28;20051;-74
2022/07/02 02:53:31;;;;;;;15.43;14.13;;;8.30;99.90;;;;;;5064469;28;20075;-73
2022/07/02 02:55:59;;;;;;;15.30;14.07;;;8.30;99.90;;;;;;5050330;28;20228;-74
2022/07/02 02:58:27;;;;;;;15.75;14.60;;;8.30;99.90;;;;;;5050131;28;20117;-76
2022/07/02 03:00:54;;;;;;;16.60;15.52;;;8.30;99.90;;;;;;5065883;28;20041;-76
2022/07/02 03:03:21;;;;;;;18.20;16.42;;;8.20;99.90;;;;;;5058578;28;20044;-76
2022/07/02 03:05:48;;;;;;;16.75;15.50;;;8.20;99.90;;;;;;5064401;28;20043;-76
2022/07/02 03:08:14;;;;;;;17.52;16.08;;;8.20;99.90;;;;;;5068019;28;20044;-77
2022/07/02 03:10:41;;;;;;;16.73;15.73;;;8.20;99.90;;;;;;5066749;28;20048;-75
2022/07/02 03:13:08;;;;;;;17.27;16.23;;;8.10;99.90;;;;;;5075746;28;20081;-78
2022/07/02 03:15:35;;;;;;;16.92;15.82;;;8.10;99.90;;;;;;5068199;28;20443;-76
2022/07/02 03:18:03;;;;;;;16.80;15.57;;;8.00;99.90;;;;;;5066384;28;20036;-76
2022/07/02 03:20:31;;;;;;;16.40;15.00;;;8.00;99.90;;;;;;5051314;28;20141;-75
2022/07/02 03:22:58;;;;;;;16.17;15.13;;;8.00;99.90;;;;;;5069853;28;20036;-75
2022/07/02 03:25:26;;;;;;;16.35;15.07;;;8.00;99.90;;;;;;5070242;28;20047;-75
2022/07/02 03:27:56;;;;;;;16.05;15.10;;;8.00;99.90;;;;;;5069769;28;20106;-75
2022/07/02 03:30:23;;;;;;;16.48;15.23;;;7.90;99.90;;;;;;5061848;28;20112;-75
2022/07/02 03:32:50;;;;;;;16.20;15.18;;;7.90;99.90;;;;;;5061560;28;20101;-75
2022/07/02 03:35:17;;;;;;;16.83;15.55;;;8.00;99.90;;;;;;5062421;28;20138;-77
2022/07/02 03:37:44;;;;;;;16.17;15.10;;;8.10;99.90;;;;;;5059760;28;20450;-75
2022/07/02 03:40:11;;;;;;;15.70;14.65;;;8.00;99.90;;;;;;5070335;28;20493;-77
2022/07/02 03:42:38;;;;;;;15.77;14.73;;;8.00;99.90;;;;;;5059427;28;20132;-75
2022/07/02 03:45:05;;;;;;;17.42;15.85;;;8.10;99.90;;;;;;5068522;28;20044;-74
2022/07/02 03:47:32;;;;;;;16.10;14.73;;;8.20;99.90;;;;;;5069348;28;20606;-76
2022/07/02 03:49:58;;;;;;;17.58;15.93;;;8.20;99.90;;;;;;5058681;28;20047;-77
2022/07/02 03:52:25;;;;;;;15.43;14.50;;;8.20;99.90;;;;;;5057431;28;20214;-75
2022/07/02 03:54:53;;;;;;;15.45;14.20;;;8.20;99.90;;;;;;5068880;28;20470;-75
2022/07/02 03:57:19;;;;;;;14.93;13.82;;;8.30;99.90;;;;;;5055409;28;20048;-75
2022/07/02 03:59:46;;;;;;;14.68;13.75;;;8.20;99.90;;;;;;5061619;28;20101;-74
2022/07/02 04:02:13;;;;;;;15.07;13.95;;;8.20;99.90;;;;;;5052715;28;20040;-76
2022/07/02 04:04:40;;;;;;;15.43;14.38;;;8.20;99.90;;;;;;5071778;28;20047;-74
2022/07/02 04:07:07;;;;;;;15.50;14.27;;;8.20;99.90;;;;;;5045970;28;20044;-75
2022/07/02 04:09:34;;;;;;;14.52;13.52;;;8.10;99.90;;;;;;5068713;28;20044;-77
2022/07/02 04:12:01;;;;;;;15.50;14.30;;;8.20;99.90;;;;;;5064769;28;20075;-77
2022/07/02 04:14:28;;;;;;;14.95;13.95;;;8.20;99.90;;;;;;5067692;28;20049;-75
2022/07/02 04:16:54;;;;;;;14.25;13.45;;;8.20;99.90;;;;;;5064343;28;20052;-75
2022/07/02 04:19:21;;;;;;;14.80;13.80;;;8.10;99.90;;;;;;5066761;28;20032;-75
2022/07/02 04:21:48;;;;;;;15.18;14.10;;;8.20;99.90;;;;;;5076517;28;20048;-76
2022/07/02 04:24:15;;;;;;;15.45;14.23;;;8.40;99.90;;;;;;5067825;28;20525;-76
2022/07/02 04:26:45;;;;;;;16.42;15.00;;;8.60;99.90;;;;;;5064858;28;20152;-75
2022/07/02 04:29:11;;;;;;;15.45;14.48;;;8.50;99.90;;;;;;5069349;28;20566;-76
2022/07/02 04:31:38;;;;;;;16.23;14.73;;;8.50;99.90;;;;;;5057058;28;20078;-76
2022/07/02 04:34:05;;;;;;;14.18;13.38;;;8.60;99.90;;;;;;5065511;28;20064;-75
2022/07/02 04:36:32;;;;;;;13.63;12.73;;;8.90;99.90;;;;;;5065226;28;20040;-74
2022/07/02 04:39:01;;;;;;;13.40;12.45;;;9.20;99.90;;;;;;5069111;28;20052;-74
2022/07/02 04:41:28;;;;;;;15.00;14.00;;;9.70;99.90;;;;;;5063189;28;20056;-76
2022/07/02 04:43:55;;;;;;;16.58;15.18;;;10.10;99.90;;;;;;5065870;28;20125;-78
2022/07/02 04:46:22;;;;;;;17.98;16.98;;;10.50;99.90;;;;;;5066670;28;20429;-76
2022/07/02 04:48:49;;;;;;;20.60;19.50;;;11.10;99.90;;;;;;5072291;28;20071;-75
2022/07/02 04:51:23;;;;;;;21.33;20.05;;;11.70;99.90;;;;;;5070350;28;20106;-75
2022/07/02 04:53:56;;;;;;;21.35;19.85;;;12.20;99.90;;;;;;5069289;28;20112;-78
2022/07/02 04:56:24;;;;;;;18.95;17.95;;;12.60;99.90;;;;;;5056234;28;20036;-77
2022/07/02 04:58:51;;;;;;;20.30;19.10;;;12.90;99.90;;;;;;5065158;28;20055;-80
2022/07/02 05:01:18;;;;;;;20.40;19.10;;;13.20;99.90;;;;;;5063127;28;20040;-76
2022/07/02 05:03:45;;;;;;;23.98;20.23;;;13.70;99.90;;;;;;5058348;28;20056;-76
2022/07/02 05:06:12;;;;;;;20.85;19.65;;;14.00;99.90;;;;;;5048715;28;20614;-77
2022/07/02 05:08:38;;;;;;;20.85;19.63;;;14.30;99.90;;;;;;5069866;28;20044;-75
2022/07/02 05:11:05;;;;;;;20.58;19.38;;;14.50;99.90;;;;;;5076646;28;20705;-76
2022/07/02 05:13:32;;;;;;;20.50;19.40;;;14.70;99.90;;;;;;5053703;28;20055;-78
2022/07/02 05:15:58;;;;;;;21.70;20.15;;;15.00;99.90;;;;;;5064088;28;20036;-76
2022/07/02 05:18:25;;;;;;;22.20;20.70;;;15.10;99.90;;;;;;5061702;28;20556;-77
2022/07/02 05:20:52;;;;;;;21.55;20.35;;;15.20;99.90;;;;;;5069102;28;20154;-78
2022/07/02 05:23:19;;;;;;;21.52;20.10;;;15.60;99.90;;;;;;5064615;28;20098;-76
2022/07/02 05:25:46;;;;;;;22.38;20.75;;;15.80;99.90;;;;;;5075980;28;20634;-78
2022/07/02 05:28:13;;;;;;;20.98;19.60;;;16.10;99.90;;;;;;5066775;28;20055;-76
2022/07/02 05:30:39;;;;;;;21.45;20.08;;;16.30;99.90;;;;;;5055111;28;20089;-78
2022/07/02 05:33:06;;;;;;;21.35;20.10;;;16.20;99.90;;;;;;5067021;28;20526;-77
2022/07/02 05:35:33;;;;;;;21.48;20.27;;;16.20;99.90;;;;;;5071789;28;20051;-76
2022/07/02 05:38:00;;;;;;;21.23;20.02;;;16.40;99.90;;;;;;5052140;28;20049;-79
2022/07/02 05:40:27;;;;;;;21.05;19.48;;;16.60;99.90;;;;;;5067049;28;20052;-77
2022/07/02 05:42:54;;;;;;;21.67;20.27;;;17.10;99.90;;;;;;5052547;28;20558;-75
2022/07/02 05:45:23;;;;;;;20.70;19.50;;;17.60;99.90;;;;;;5077212;28;20531;-77
2022/07/02 05:47:50;;;;;;;19.42;18.55;;;18.00;99.90;;;;;;5058311;28;20105;-76
2022/07/02 05:50:19;;;;;;;20.92;19.52;;;18.50;99.90;;;;;;5050239;28;20617;-73
2022/07/02 05:52:46;;;;;;;21.05;19.70;;;18.70;99.90;;;;;;5068521;28;20129;-77
2022/07/02 05:55:14;;;;;;;22.02;20.83;;;18.40;99.90;;;;;;5069353;28;20619;-76
2022/07/02 05:57:41;;;;;;;22.25;20.90;;;18.60;99.90;;;;;;5072665;28;20040;-75
2022/07/02 06:00:10;;;;;;;22.75;21.33;;;18.60;99.90;;;;;;5071668;28;20048;-76
2022/07/02 06:02:36;;;;;;;23.23;21.67;;;18.80;99.90;;;;;;5054031;28;20044;-76
2022/07/02 06:07:49;;;;;;;22.02;20.83;;;19.20;99.90;;;;;;5075175;28;20047;-76
2022/07/02 06:10:18;;;;;;;22.15;20.95;;;19.40;99.90;;;;;;5070142;28;20102;-76
2022/07/02 06:12:50;;;;;;;21.60;20.27;;;19.50;99.90;;;;;;5077017;28;20155;-75
2022/07/02 06:15:18;;;;;;;22.98;21.42;;;19.50;99.90;;;;;;5057780;28;20053;-73
2022/07/02 06:17:45;;;;;;;22.80;21.35;;;19.50;99.90;;;;;;5075937;28;20102;-77
2022/07/02 06:20:13;;;;;;;21.27;20.13;;;19.60;99.90;;;;;;5076887;28;20048;-76
2022/07/02 06:22:45;;;;;;;21.88;20.58;;;19.60;99.90;;;;;;5068509;28;20048;-75
2022/07/02 06:25:12;;;;;;;21.60;20.17;;;19.50;99.90;;;;;;5073499;28;20048;-75
2022/07/02 06:27:39;;;;;;;20.80;19.48;;;19.30;99.90;;;;;;5076976;28;20048;-75
2022/07/02 06:30:10;;;;;;;20.10;19.00;;;19.10;99.90;;;;;;5072415;28;20059;-75
2022/07/02 06:32:37;;;;;;;21.02;19.73;;;19.20;99.90;;;;;;5071469;28;20174;-75
2022/07/02 06:35:04;;;;;;;20.77;19.33;;;19.30;99.90;;;;;;5075075;28;20055;-76
2022/07/02 06:37:32;;;;;;;20.33;19.13;;;19.20;99.90;;;;;;5059554;28;20697;-76
2022/07/02 06:39:58;;;;;;;20.88;19.50;;;19.20;99.90;;;;;;5069564;28;20040;-75
2022/07/02 06:42:31;;;;;;;21.25;19.65;;;19.00;99.90;;;;;;5071418;28;20045;-76
2022/07/02 06:44:59;;;;;;;20.55;19.38;;;18.90;99.90;;;;;;5069163;28;20123;-75
2022/07/02 06:47:27;;;;;;;20.52;19.20;;;19.10;99.90;;;;;;5068977;28;20064;-74
2022/07/02 06:49:55;;;;;;;20.17;18.90;;;19.30;99.90;;;;;;5062112;28;20043;-80
2022/07/02 06:52:23;;;;;;;20.55;19.30;;;19.80;99.90;;;;;;5066050;28;20698;-76
2022/07/02 06:54:50;;;;;;;19.40;18.40;;;20.40;99.90;;;;;;5059950;28;20071;-76
2022/07/02 06:57:20;;;;;;;20.10;18.92;;;20.60;99.90;;;;;;5057408;28;20658;-73
2022/07/02 06:59:53;;;;;;;21.50;20.10;;;20.40;99.90;;;;;;5063832;28;20139;-74
2022/07/02 07:02:21;;;;;;;21.02;19.83;;;20.20;99.90;;;;;;5072418;28;20040;-80
2022/07/02 07:04:48;;;;;;;22.08;20.67;;;20.10;99.90;;;;;;5051968;28;20128;-77
2022/07/02 07:07:16;;;;;;;21.40;19.80;;;20.30;99.90;;;;;;5068021;28;20049;-76
2022/07/02 07:09:43;;;;;;;20.83;19.27;;;20.40;99.90;;;;;;5068338;28;20055;-75
2022/07/02 07:12:11;;;;;;;20.35;18.92;;;20.30;99.90;;;;;;5063321;28;20189;-75
2022/07/02 07:14:37;;;;;;;19.55;18.38;;;20.30;99.90;;;;;;5064380;28;20060;-74
2022/07/02 07:17:05;;;;;;;20.73;19.45;;;20.50;99.90;;;;;;5054665;28;20496;-76
2022/07/02 07:19:31;;;;;;;20.70;19.60;;;20.80;99.90;;;;;;5048206;28;20429;-77
2022/07/02 07:21:58;;;;;;;21.05;19.58;;;20.80;99.90;;;;;;5068678;28;20586;-78
2022/07/02 07:24:25;;;;;;;20.65;19.50;;;20.90;99.90;;;;;;5059326;28;20101;-76
2022/07/02 07:26:52;;;;;;;20.70;19.17;;;21.40;99.90;;;;;;5067690;28;20131;-76
2022/07/02 07:29:19;;;;;;;21.48;20.13;;;21.70;99.90;;;;;;5065962;28;20056;-75
2022/07/02 07:31:46;;;;;;;20.83;19.35;;;21.90;99.90;;;;;;5063971;28;20051;-76
2022/07/02 07:34:12;;;;;;;21.13;19.92;;;21.90;99.90;;;;;;5056898;28;20041;-75
2022/07/02 07:36:39;;;;;;;20.73;19.45;;;21.70;99.90;;;;;;5071243;28;20124;-76
2022/07/02 07:39:06;;;;;;;21.17;19.95;;;21.80;99.90;;;;;;5062852;28;20053;-75
2022/07/02 07:41:34;;;;;;;21.45;20.05;;;21.90;99.90;;;;;;5064771;28;20098;-75
2022/07/02 07:44:02;;;;;;;20.45;19.20;;;22.20;99.90;;;;;;5064417;28;20045;-77
2022/07/02 07:46:29;;;;;;;20.35;19.15;;;22.40;99.90;;;;;;5050432;28;20071;-75
2022/07/02 07:48:58;;;;;;;20.27;19.20;;;22.70;99.90;;;;;;5052264;28;20126;-73
2022/07/02 07:51:25;;;;;;;20.77;19.48;;;22.80;99.90;;;;;;5073483;28;20048;-73
2022/07/02 07:53:52;;;;;;;21.95;20.73;;;22.80;99.90;;;;;;5066733;28;20041;-75
2022/07/02 07:56:19;;;;;;;21.33;20.05;;;22.70;99.90;;;;;;5061125;28;20492;-75
2022/07/02 07:58:46;;;;;;;20.85;19.75;;;22.60;99.90;;;;;;5064172;28;20040;-77
2022/07/02 08:01:13;;;;;;;22.23;20.67;;;22.50;99.90;;;;;;5063124;28;20056;-75
2022/07/02 08:03:40;;;;;;;21.80;20.70;;;22.30;99.90;;;;;;5049933;28;20040;-77
2022/07/02 08:06:07;;;;;;;22.50;21.23;;;22.60;99.90;;;;;;5062261;28;20049;-76
2022/07/02 08:08:34;;;;;;;21.80;20.70;;;22.90;99.90;;;;;;5065717;28;20060;-76
2022/07/02 08:11:01;;;;;;;22.35;21.15;;;23.00;99.90;;;;;;5055965;28;20048;-76
2022/07/02 08:13:28;;;;;;;21.65;20.45;;;23.20;99.90;;;;;;5067138;28;20477;-75
2022/07/02 08:15:55;;;;;;;21.98;20.63;;;23.40;99.90;;;;;;5056292;28;20044;-75
2022/07/02 08:18:22;;;;;;;21.80;20.70;;;23.20;99.90;;;;;;5064168;28;20649;-75
2022/07/02 08:20:48;;;;;;;20.73;19.73;;;23.20;99.90;;;;;;5054699;28;20036;-75
2022/07/02 08:23:15;;;;;;;19.25;18.25;;;23.50;99.90;;;;;;5061133;28;20485;-76
2022/07/02 08:25:42;;;;;;;21.40;20.08;;;23.60;99.90;;;;;;5056452;28;20821;-76
2022/07/02 08:28:09;;;;;;;21.70;20.52;;;23.50;99.90;;;;;;5062024;28;20044;-75
2022/07/02 08:30:36;;;;;;;21.83;20.73;;;23.20;99.90;;;;;;5068399;28;20137;-75
2022/07/02 08:33:03;;;;;;;21.67;20.38;;;23.30;99.90;;;;;;5052123;28;20465;-76
2022/07/02 08:35:30;;;;;;;22.00;20.80;;;23.30;99.90;;;;;;5042820;28;20085;-79
2022/07/02 08:37:57;;;;;;;21.52;20.23;;;23.10;99.90;;;;;;5062489;28;20659;-75
2022/07/02 08:40:30;;;;;;;21.00;19.90;;;23.10;99.90;;;;;;5064681;28;20047;-76
2022/07/02 08:42:59;;;;;;;22.35;21.00;;;23.10;99.90;;;;;;5045677;28;20601;-74
2022/07/02 08:45:30;;;;;;;21.50;20.38;;;23.20;99.90;;;;;;5073288;28;20102;-75
2022/07/02 08:47:58;;;;;;;22.55;21.35;;;23.70;99.90;;;;;;5045408;28;20122;-74
2022/07/02 08:50:26;;;;;;;22.75;21.50;;;24.10;99.90;;;;;;5063730;28;20048;-76
2022/07/02 08:52:54;;;;;;;22.10;21.00;;;23.70;99.90;;;;;;5052784;28;20052;-74
2022/07/02 08:55:22;;;;;;;22.27;20.95;;;24.10;99.90;;;;;;5069593;28;20043;-77
2022/07/02 08:57:50;;;;;;;19.08;18.08;;;24.40;99.90;;;;;;5050201;28;20549;-77
2022/07/02 09:00:20;;;;;;;22.00;20.77;;;24.00;99.90;;;;;;5062722;28;20059;-77
2022/07/02 09:02:57;;;;;;;21.92;20.80;;;23.80;99.90;;;;;;5057058;28;20531;-77
2022/07/02 09:05:26;;;;;;;21.98;20.77;;;24.00;99.90;;;;;;5048595;28;20116;-79
2022/07/02 09:07:55;;;;;;;20.52;19.42;;;24.10;99.90;;;;;;5054297;28;20048;-77
2022/07/02 09:10:24;;;;;;;19.98;18.88;;;24.10;99.90;;;;;;5059663;28;20048;-76
2022/07/02 09:12:53;;;;;;;20.88;19.67;;;23.90;99.90;;;;;;5060574;28;20117;-76
2022/07/02 09:15:20;;;;;;;20.35;19.10;;;23.70;99.90;;;;;;5070831;28;20043;-76
2022/07/02 09:17:47;;;;;;;21.50;20.33;;;23.70;99.90;;;;;;5063129;28;20137;-75
2022/07/02 09:20:14;;;;;;;21.88;20.77;;;23.50;99.90;;;;;;5060425;28;20491;-76
2022/07/02 09:22:44;;;;;;;22.90;21.55;;;23.40;99.90;;;;;;5061266;28;20055;-80
2022/07/02 09:25:12;;;;;;;22.45;21.15;;;23.70;99.90;;;;;;5062600;28;20040;-77
2022/07/02 09:27:40;;;;;;;22.75;21.55;;;23.70;99.90;;;;;;5069950;28;20635;-76
2022/07/02 09:30:09;;;;;;;22.55;21.17;;;23.90;99.90;;;;;;5054047;28;20052;-76
2022/07/02 09:32:42;;;;;;;20.98;19.77;;;23.90;99.90;;;;;;5056973;28;20052;-75
2022/07/02 09:35:18;;;;;;;21.58;20.35;;;24.00;99.90;;;;;;5069292;28;20059;-76
2022/07/02 09:37:46;;;;;;;21.92;20.60;;;23.70;99.90;;;;;;5064917;28;20048;-75
2022/07/02 09:40:13;;;;;;;22.55;21.25;;;23.60;99.90;;;;;;5062440;28;20083;-78
2022/07/02 09:42:45;;;;;;;22.25;20.95;;;23.40;99.90;;;;;;5056870;28;20048;-75
2022/07/02 09:45:12;;;;;;;21.45;20.30;;;23.80;99.90;;;;;;5073609;28;20044;-76
2022/07/02 09:47:40;;;;;;;20.63;19.42;;;24.20;99.90;;;;;;5050394;28;20040;-77
2022/07/02 09:50:10;;;;;;;20.63;19.42;;;23.80;99.90;;;;;;5072299;28;20043;-75
2022/07/02 09:52:53;;;;;;;20.90;19.70;;;23.50;99.90;;;;;;5071236;28;20173;-75
2022/07/02 09:55:26;;;;;;;35.28;20.63;;;23.30;99.90;;;;;;5067725;28;20045;-76
2022/07/02 09:57:54;;;;;;;22.20;21.10;;;23.30;99.90;;;;;;5064307;28;20053;-76
2022/07/02 10:00:23;;;;;;;25.02;23.63;;;23.10;99.90;;;;;;5048829;28;20143;-76
2022/07/02 10:02:52;;;;;;;23.70;22.05;;;22.80;99.90;;;;;;5053932;28;20047;-76
2022/07/02 10:05:24;;;;;;;22.95;21.60;;;23.00;99.90;;;;;;5065683;28;20048;-76
2022/07/02 10:07:56;;;;;;;22.10;20.80;;;23.00;99.90;;;;;;5052391;28;20041;-76
2022/07/02 10:10:38;;;;;;;23.20;22.00;;;22.80;99.90;;;;;;5050467;28;20049;-75
2022/07/02 10:13:10;;;;;;;23.20;22.00;;;23.20;99.90;;;;;;5069115;28;20067;-74
2022/07/02 10:15:49;;;;;;;22.92;21.77;;;23.60;99.90;;;;;;5059924;28;20060;-75
2022/07/02 10:18:18;;;;;;;23.20;22.00;;;24.30;99.90;;;;;;5053624;28;20508;-74
2022/07/02 10:20:45;;;;;;;23.33;22.02;;;24.70;99.90;;;;;;5069567;28;20048;-77
2022/07/02 10:23:14;;;;;;;24.02;22.77;;;25.00;99.90;;;;;;5057099;28;20090;-76
2022/07/02 10:25:43;;;;;;;23.95;22.27;;;25.20;99.90;;;;;;5071940;28;20469;-77
2022/07/02 10:28:09;;;;;;;23.45;22.05;;;25.00;99.90;;;;;;5066066;28;20094;-75
2022/07/02 10:30:37;;;;;;;22.20;20.77;;;25.00;99.90;;;;;;5057038;28;20044;-74
2022/07/02 10:33:25;;;;;;;23.20;21.90;;;25.40;99.90;;;;;;5062462;28;20083;-76
2022/07/02 10:35:53;;;;;;;24.55;23.15;;;25.30;99.90;;;;;;5059925;28;20041;-75
2022/07/02 10:38:34;;;;;;;25.05;23.75;;;25.00;99.90;;;;;;5044502;28;20102;-76
2022/07/02 10:41:02;;;;;;;25.25;23.77;;;25.00;99.30;;;;;;5058572;28;20097;-76
2022/07/02 10:43:35;;;;;;;23.42;22.15;;;25.30;99.70;;;;;;5060992;28;20109;-79
2022/07/02 10:46:09;;;;;;;24.25;22.85;;;25.50;98.80;;;;;;5058231;28;20040;-77
2022/07/02 10:48:54;;;;;;;21.25;20.13;;;25.60;99.30;;;;;;5067745;28;20048;-77
2022/07/02 10:51:26;;;;;;;21.25;19.83;;;25.70;99.90;;;;;;5071758;28;20067;-76
2022/07/02 10:53:59;;;;;;;23.13;21.70;;;25.50;98.80;;;;;;5065324;28;20057;-76
2022/07/02 10:56:26;;;;;;;26.00;24.63;;;25.00;99.30;;;;;;5067703;28;20090;-75
2022/07/02 10:58:54;;;;;;;25.60;23.75;;;25.00;98.90;;;;;;5064642;28;20675;-76
2022/07/02 11:01:24;;;;;;;20.98;19.88;;;25.00;98.50;;;;;;5073713;28;20669;-75
2022/07/02 11:04:09;;;;;;;20.30;19.13;;;25.30;99.00;;;;;;5055718;28;20098;-75
2022/07/02 11:06:36;;;;;;;21.15;19.83;;;24.80;98.90;;;;;;5071536;28;20040;-77
2022/07/02 11:09:06;;;;;;;21.77;20.48;;;24.60;99.40;;;;;;5072206;28;20736;-75
2022/07/02 11:11:36;;;;;;;26.75;25.27;;;24.40;98.20;;;;;;5062546;28;20052;-74
2022/07/02 11:14:10;;;;;;;25.02;23.65;;;24.40;99.90;;;;;;5072501;28;20051;-74
2022/07/02 11:16:51;;;;;;;26.02;24.67;;;24.50;98.80;;;;;;5072558;28;20055;-76
2022/07/02 11:19:24;;;;;;;25.15;23.85;;;24.50;99.90;;;;;;5077592;28;20056;-76
2022/07/02 11:21:57;;;;;;;22.02;20.83;;;24.90;99.90;;;;;;5069031;28;20114;-76
2022/07/02 11:24:30;;;;;;;22.45;20.92;;;25.00;98.80;;;;;;5072590;28;20513;-75
2022/07/02 11:26:58;;;;;;;23.48;22.27;;;25.10;99.90;;;;;;5074037;28;20408;-75
2022/07/02 11:29:26;;;;;;;25.73;24.42;;;24.50;99.10;;;;;;5073945;28;20153;-75
2022/07/02 11:31:55;;;;;;;25.48;24.17;;;24.10;99.00;;;;;;5067977;28;20333;-75
2022/07/02 11:34:25;;;;;;;24.88;23.52;;;24.30;99.20;;;;;;5072676;28;20059;-76
2022/07/02 11:36:52;;;;;;;25.50;24.10;;;24.50;99.90;;;;;;5062805;28;20045;-74
2022/07/02 11:39:22;;;;;;;23.15;21.85;;;25.00;98.10;;;;;;5065232;28;20064;-75
2022/07/02 11:41:49;;;;;;;27.98;26.15;;;25.10;99.40;;;;;;5072068;28;20037;-75
2022/07/02 11:44:21;;;;;;;26.33;25.13;;;25.30;98.00;;;;;;5074164;28;20505;-77
2022/07/02 11:46:50;;;;;;;26.92;25.42;;;25.70;99.70;;;;;;5063134;28;20037;-77
2022/07/02 11:49:23;;;;;;;21.88;20.58;;;25.90;96.90;;;;;;5074808;28;20052;-78
2022/07/02 11:51:51;;;;;;;26.02;24.73;;;25.70;97.20;;;;;;5054970;28;20152;-79
2022/07/02 11:54:18;;;;;;;25.33;23.92;;;25.60;97.80;;;;;;5075738;28;20739;-74
2022/07/02 11:56:47;;;;;;;22.48;21.27;;;25.90;97.00;;;;;;5061776;28;20489;-75
2022/07/02 11:59:21;;;;;;;23.88;22.67;;;25.40;96.40;;;;;;5071563;28;20052;-75
2022/07/02 12:01:50;;;;;;;27.10;25.55;;;24.70;96.90;;;;;;5068734;28;20085;-75
2022/07/02 12:04:19;;;;;;;26.10;24.58;;;24.60;97.80;;;;;;5050960;28;20509;-78
2022/07/02 12:06:49;;;;;;;25.58;24.27;;;24.80;97.90;;;;;;5071936;28;20032;-76
2022/07/02 12:09:18;;;;;;;26.58;25.17;;;25.40;99.00;;;;;;5068393;28;20049;-78
2022/07/02 12:11:47;;;;;;;26.88;25.27;;;25.50;96.80;;;;;;5072156;28;20091;-79
2022/07/02 12:14:15;;;;;;;23.92;22.30;;;25.30;96.10;;;;;;5071205;28;20121;-74
2022/07/02 12:16:46;;;;;;;25.60;24.20;;;25.50;97.30;;;;;;5065550;28;20044;-75
2022/07/02 12:19:15;;;;;;;26.42;24.83;;;25.50;96.20;;;;;;5068663;28;20063;-75
2022/07/02 12:21:51;;;;;;;25.55;23.92;;;25.60;95.40;;;;;;5065206;28;20533;-76
2022/07/02 12:24:25;;;;;;;26.00;24.70;;;25.40;95.60;;;;;;5056174;28;20109;-75
2022/07/02 12:26:53;;;;;;;26.15;24.75;;;25.40;95.50;;;;;;5075950;28;20089;-76
2022/07/02 12:32:16;;;;;;;24.80;23.60;;;25.50;95.30;;;;;;5079300;28;20044;-76
2022/07/02 12:34:52;;;;;;;25.67;24.27;;;25.50;94.80;;;;;;5062786;28;21256;-74
2022/07/02 12:37:24;;;;;;;24.67;23.27;;;25.40;96.60;;;;;;5060932;28;20059;-75
2022/07/02 12:40:07;;;;;;;25.65;24.35;;;26.00;95.40;;;;;;5062274;28;20048;-74
2022/07/02 12:42:45;;;;;;;26.33;24.92;;;25.90;95.10;;;;;;5072605;28;20047;-79